Time;durP1;ratioP1;P1;durP2;ratioP2;P2;SDS_P1;SDS_P2;PMS_P1;PMS_P2;Temp;Humidity;BMP_temperature;BMP_pressure;BME280_temperature;BME280_humidity;BME280_pressure;Samples;Min_cycle;Max_cycle;Signal;HPM_P1;HPM_P2
2022/10/23 00:01:30;;;;;;;36.92;22.37;;;;;;;12.45;92.98;100358.47;4493476;31;34001;-79
2022/10/23 00:04:19;;;;;;;36.35;22.35;;;;;;;12.15;93.98;100364.03;4482811;31;33900;-79
2022/10/23 00:06:48;;;;;;;34.47;22.27;;;;;;;13.23;87.72;100359.37;4495624;31;33980;-79
2022/10/23 00:09:21;;;;;;;33.95;21.73;;;;;;;13.26;86.47;100361.22;4476149;32;33249;-78
2022/10/23 00:11:49;;;;;;;33.28;21.77;;;;;;;13.21;85.73;100365.31;4485988;31;34577;-78
2022/10/23 00:14:20;;;;;;;31.50;20.65;;;;;;;13.04;86.52;100383.69;4494667;31;34671;-78
2022/10/23 00:16:47;;;;;;;32.83;21.55;;;;;;;13.35;84.93;100379.84;4488353;31;33852;-78
2022/10/23 00:19:15;;;;;;;33.65;21.42;;;;;;;13.18;85.64;100387.78;4489807;31;33595;-79
2022/10/23 00:21:42;;;;;;;32.38;22.20;;;;;;;12.77;87.55;100392.03;4489141;31;34502;-78
2022/10/23 00:24:10;;;;;;;33.25;22.13;;;;;;;12.67;88.16;100389.84;4499173;31;34173;-78
2022/10/23 00:26:39;;;;;;;37.00;21.40;;;;;;;12.45;90.09;100381.88;4498060;31;33992;-79
2022/10/23 00:29:07;;;;;;;37.72;23.75;;;;;;;12.96;86.42;100385.03;4493276;31;34219;-79
2022/10/23 00:31:35;;;;;;;31.73;21.10;;;;;;;13.31;84.09;100393.56;4473433;32;34715;-79
2022/10/23 00:34:06;;;;;;;33.63;21.30;;;;;;;13.03;84.81;100392.28;4483268;31;33810;-79
2022/10/23 00:36:35;;;;;;;31.58;20.80;;;;;;;12.63;87.65;100387.91;4479682;31;33804;-78
2022/10/23 00:39:03;;;;;;;32.28;20.15;;;;;;;12.24;90.31;100394.72;4493699;31;33281;-79
2022/10/23 00:41:31;;;;;;;31.55;20.95;;;;;;;12.23;90.37;100395.53;4486046;32;34187;-78
2022/10/23 00:44:05;;;;;;;35.42;22.77;;;;;;;12.35;89.87;100398.72;4485833;31;34580;-79
2022/10/23 00:46:34;;;;;;;37.30;22.67;;;;;;;12.31;90.62;100418.47;4487242;31;34555;-78
2022/10/23 00:49:03;;;;;;;37.03;22.65;;;;;;;12.22;90.99;100405.03;4474591;31;34327;-78
2022/10/23 00:51:35;;;;;;;33.88;23.00;;;;;;;12.71;89.08;100412.56;4490889;31;34652;-78
2022/10/23 00:54:03;;;;;;;39.28;22.92;;;;;;;12.62;87.60;100419.91;4472091;31;32496;-78
2022/10/23 00:56:54;;;;;;;32.92;21.45;;;;;;;13.32;84.73;100418.72;4495109;31;33612;-78
2022/10/23 00:59:22;;;;;;;31.65;20.42;;;;;;;13.02;85.58;100421.75;4485443;31;33318;-79
2022/10/23 01:01:49;;;;;;;33.45;21.37;;;;;;;13.29;84.60;100437.69;4496661;31;34046;-78
2022/10/23 01:04:17;;;;;;;35.55;23.45;;;;;;;13.23;84.98;100439.09;4482328;31;33738;-78
2022/10/23 01:07:00;;;;;;;32.35;20.52;;;;;;;12.69;87.97;100447.06;4473038;31;34161;-78
2022/10/23 01:09:33;;;;;;;33.70;21.48;;;;;;;12.49;90.25;100444.44;4480186;31;33714;-78
2022/10/23 01:12:21;;;;;;;30.10;20.10;;;;;;;12.68;88.37;100451.38;4486462;31;33893;-78
2022/10/23 01:14:57;;;;;;;31.58;19.90;;;;;;;12.25;89.70;100444.16;4490582;31;34734;-78
2022/10/23 01:17:40;;;;;;;34.85;21.27;;;;;;;12.20;92.11;100443.03;4483623;31;34348;-78
2022/10/23 01:20:38;;;;;;;33.13;22.42;;;;;;;11.77;94.67;100444.37;4485930;31;32063;-78
2022/10/23 01:23:31;;;;;;;37.00;22.80;;;;;;;11.25;98.39;100451.22;4483654;31;33644;-78
2022/10/23 01:26:19;;;;;;;32.33;21.10;;;;;;;11.69;95.21;100456.09;4490637;31;34757;-78
2022/10/23 01:28:54;;;;;;;37.60;21.90;;;;;;;11.33;97.34;100452.50;4480738;31;33787;-78
2022/10/23 01:31:29;;;;;;;38.10;21.80;;;;;;;12.09;94.88;100446.81;4482688;31;34295;-78
2022/10/23 01:34:01;;;;;;;35.38;23.15;;;;;;;11.12;98.49;100447.06;4483756;31;33826;-78
2022/10/23 01:36:30;;;;;;;38.00;23.67;;;;;;;10.74;100.00;100452.00;4491468;31;33948;-78
2022/10/23 01:39:02;;;;;;;33.05;22.85;;;;;;;10.66;100.00;100448.06;4491314;31;34532;-78
2022/10/23 01:41:39;;;;;;;36.50;22.98;;;;;;;11.25;100.00;100443.44;4484506;31;33258;-78
2022/10/23 01:44:16;;;;;;;38.03;23.12;;;;;;;11.03;99.76;100442.31;4497188;31;34547;-78
2022/10/23 01:46:45;;;;;;;35.88;22.67;;;;;;;10.84;99.94;100452.50;4492007;31;34662;-78
2022/10/23 01:49:13;;;;;;;37.45;22.58;;;;;;;10.72;100.00;100451.03;4479665;31;33951;-78
2022/10/23 01:51:59;;;;;;;34.45;22.58;;;;;;;10.74;99.91;100446.81;4469522;32;33161;-78
2022/10/23 01:54:32;;;;;;;36.17;23.02;;;;;;;10.61;100.00;100447.81;4462074;32;34051;-78
2022/10/23 01:57:01;;;;;;;36.65;23.50;;;;;;;10.51;100.00;100447.25;4465991;32;33385;-78
2022/10/23 01:59:34;;;;;;;38.88;24.45;;;;;;;10.42;100.00;100443.31;4471224;32;34187;-79
2022/10/23 02:02:03;;;;;;;39.05;24.52;;;;;;;10.24;100.00;100431.94;4496067;31;33950;-78
2022/10/23 02:04:39;;;;;;;39.03;25.10;;;;;;;10.21;100.00;100442.09;4489594;31;34625;-79
2022/10/23 02:07:07;;;;;;;39.45;25.20;;;;;;;10.19;100.00;100454.06;4497394;31;33965;-78
2022/10/23 02:09:35;;;;;;;40.17;24.27;;;;;;;10.40;100.00;100438.88;4494714;31;33800;-78
2022/10/23 02:12:08;;;;;;;41.55;24.27;;;;;;;10.30;100.00;100446.91;4474162;31;33384;-78
2022/10/23 02:14:42;;;;;;;36.97;23.50;;;;;;;10.31;100.00;100447.00;4478900;31;34717;-78
2022/10/23 02:17:18;;;;;;;40.47;25.33;;;;;;;10.25;100.00;100444.03;4491604;31;34647;-78
2022/10/23 02:19:50;;;;;;;40.72;25.10;;;;;;;10.27;100.00;100437.25;4471697;32;33855;-78
2022/10/23 02:22:24;;;;;;;42.22;26.35;;;;;;;10.28;100.00;100448.53;4482267;31;33485;-78
2022/10/23 02:24:56;;;;;;;42.83;26.77;;;;;;;10.32;100.00;100450.50;4491870;31;34112;-78
2022/10/23 02:27:39;;;;;;;41.35;24.95;;;;;;;10.43;100.00;100450.31;4478406;31;34641;-78
2022/10/23 02:30:09;;;;;;;38.33;23.73;;;;;;;10.29;100.00;100435.62;4482117;31;33709;-78
2022/10/23 02:32:41;;;;;;;41.80;25.27;;;;;;;10.38;100.00;100441.38;4472702;32;32709;-78
2022/10/23 02:35:10;;;;;;;41.53;24.00;;;;;;;10.51;100.00;100442.97;4470007;32;35315;-79
2022/10/23 02:37:38;;;;;;;37.40;22.77;;;;;;;10.42;100.00;100443.31;4472502;31;34764;-79
2022/10/23 02:40:08;;;;;;;41.10;24.75;;;;;;;10.32;100.00;100451.41;4479646;31;33725;-78
2022/10/23 02:42:46;;;;;;;39.72;23.38;;;;;;;10.37;100.00;100459.41;4474205;32;32380;-78
2022/10/23 02:45:26;;;;;;;37.90;23.40;;;;;;;10.46;100.00;100465.09;4470184;32;33678;-78
2022/10/23 02:48:00;;;;;;;39.55;23.67;;;;;;;10.36;100.00;100462.81;4471096;31;33956;-78
2022/10/23 02:50:37;;;;;;;39.85;25.35;;;;;;;10.22;100.00;100474.97;4458118;32;33852;-78
2022/10/23 02:53:28;;;;;;;40.55;25.10;;;;;;;10.26;100.00;100476.91;4472350;31;33558;-78
2022/10/23 02:56:14;;;;;;;41.13;24.05;;;;;;;10.42;100.00;100474.41;4476437;31;34038;-78
2022/10/23 02:59:05;;;;;;;39.10;23.45;;;;;;;10.81;100.00;100474.81;4475178;31;34725;-78
2022/10/23 03:01:38;;;;;;;37.63;24.02;;;;;;;10.68;100.00;100480.16;4479528;32;33746;-78
2022/10/23 03:04:08;;;;;;;40.15;24.48;;;;;;;10.67;100.00;100480.97;4470743;31;34318;-78
2022/10/23 03:06:36;;;;;;;39.65;24.70;;;;;;;10.41;100.00;100490.75;4468898;32;33784;-78
2022/10/23 03:09:06;;;;;;;37.33;23.45;;;;;;;10.57;100.00;100486.44;4471501;31;34436;-78
2022/10/23 03:11:34;;;;;;;39.65;25.40;;;;;;;10.59;100.00;100487.41;4474471;31;33716;-78
2022/10/23 03:14:02;;;;;;;40.38;24.95;;;;;;;10.60;100.00;100490.09;4477326;31;34312;-78
2022/10/23 03:16:29;;;;;;;40.15;24.65;;;;;;;10.53;100.00;100489.69;4471806;31;33945;-78
2022/10/23 03:18:57;;;;;;;35.17;22.87;;;;;;;10.95;99.26;100493.75;4475003;31;34817;-78
2022/10/23 03:21:25;;;;;;;37.80;23.45;;;;;;;11.84;92.69;100497.50;4470885;31;33105;-78
2022/10/23 03:23:52;;;;;;;38.08;24.00;;;;;;;11.68;91.18;100505.31;4472841;31;34242;-78
2022/10/23 03:26:20;;;;;;;37.00;23.38;;;;;;;11.08;94.05;100505.63;4475995;31;33831;-78
2022/10/23 03:28:47;;;;;;;37.33;23.25;;;;;;;10.35;98.22;100508.56;4480532;31;33707;-78
2022/10/23 03:31:15;;;;;;;40.47;25.05;;;;;;;10.09;100.00;100503.53;4474163;31;34605;-78
2022/10/23 03:33:43;;;;;;;38.95;23.62;;;;;;;10.24;100.00;100504.41;4478249;31;33601;-78
2022/10/23 03:36:11;;;;;;;39.80;23.50;;;;;;;10.11;100.00;100507.09;4476201;31;34584;-78
2022/10/23 03:38:39;;;;;;;39.83;25.12;;;;;;;10.11;100.00;100501.94;4478849;31;34726;-78
2022/10/23 03:41:06;;;;;;;42.85;25.27;;;;;;;10.13;100.00;100500.31;4476003;31;35187;-78
2022/10/23 03:43:34;;;;;;;38.53;24.02;;;;;;;10.47;100.00;100499.66;4476649;31;33434;-78
2022/10/23 03:46:01;;;;;;;37.78;25.10;;;;;;;10.48;98.62;100498.88;4482694;31;32494;-78
2022/10/23 03:48:29;;;;;;;38.30;23.83;;;;;;;10.31;99.46;100501.37;4475396;31;33791;-78
2022/10/23 03:50:57;;;;;;;37.90;23.05;;;;;;;10.09;99.39;100508.72;4473344;31;33655;-78
2022/10/23 03:53:24;;;;;;;35.67;22.33;;;;;;;10.12;98.67;100504.63;4473966;31;33290;-78
2022/10/23 03:55:52;;;;;;;35.70;22.13;;;;;;;10.03;97.27;100510.12;4479602;31;34007;-78
2022/10/23 03:58:19;;;;;;;33.65;21.40;;;;;;;9.94;98.12;100509.59;4485354;31;34667;-78
2022/10/23 04:00:48;;;;;;;36.10;23.02;;;;;;;9.77;98.80;100512.88;4472797;31;33644;-78
2022/10/23 04:03:15;;;;;;;37.67;24.15;;;;;;;9.80;98.68;100510.50;4475066;31;33304;-78
2022/10/23 04:05:43;;;;;;;38.67;24.15;;;;;;;10.09;97.70;100508.72;4470336;32;33936;-78
2022/10/23 04:08:10;;;;;;;40.50;23.48;;;;;;;10.06;97.58;100514.59;4477292;31;33845;-78
2022/10/23 04:10:42;;;;;;;36.63;23.80;;;;;;;10.09;98.87;100513.88;4475180;31;33816;-78
2022/10/23 04:13:10;;;;;;;39.58;23.60;;;;;;;9.88;100.00;100509.22;4480280;31;33381;-78
2022/10/23 04:15:37;;;;;;;39.50;24.20;;;;;;;9.92;100.00;100505.13;4477057;31;34022;-77
2022/10/23 04:18:05;;;;;;;37.95;23.58;;;;;;;9.94;99.40;100494.06;4470575;31;33788;-78
2022/10/23 04:20:32;;;;;;;37.45;23.52;;;;;;;10.30;96.16;100496.12;4472772;31;33667;-78
2022/10/23 04:23:00;;;;;;;36.88;22.87;;;;;;;9.86;99.12;100500.50;4473820;31;33244;-78
2022/10/23 04:25:28;;;;;;;38.45;23.42;;;;;;;9.72;100.00;100502.28;4474908;31;33861;-77
2022/10/23 04:27:55;;;;;;;35.90;22.77;;;;;;;9.87;99.16;100499.72;4477704;31;34040;-78
2022/10/23 04:30:23;;;;;;;38.83;23.17;;;;;;;9.52;99.49;100501.09;4475322;31;33929;-78
2022/10/23 04:32:51;;;;;;;33.78;21.27;;;;;;;9.33;100.00;100496.50;4474737;31;33485;-78
2022/10/23 04:35:19;;;;;;;35.30;22.30;;;;;;;9.33;100.00;100495.59;4472209;31;34072;-77
2022/10/23 04:37:46;;;;;;;39.33;22.98;;;;;;;9.21;100.00;100494.06;4473061;31;33878;-78
2022/10/23 04:40:14;;;;;;;38.92;23.70;;;;;;;9.17;100.00;100499.81;4476847;31;33618;-79
2022/10/23 04:42:41;;;;;;;40.35;25.25;;;;;;;9.12;100.00;100498.66;4475471;31;33344;-78
2022/10/23 04:45:09;;;;;;;42.40;23.98;;;;;;;9.11;100.00;100499.44;4476263;31;34166;-78
2022/10/23 04:47:39;;;;;;;46.37;25.98;;;;;;;9.34;100.00;100494.81;4473881;31;33125;-78
2022/10/23 04:50:07;;;;;;;45.17;25.98;;;;;;;9.60;100.00;100497.25;4477634;31;34464;-78
2022/10/23 04:52:34;;;;;;;40.50;24.55;;;;;;;9.29;100.00;100511.72;4474371;31;33573;-78
2022/10/23 04:55:02;;;;;;;49.67;27.02;;;;;;;9.55;100.00;100515.88;4477157;31;33850;-78
2022/10/23 04:57:30;;;;;;;42.22;25.77;;;;;;;9.64;99.93;100514.75;4472963;32;32578;-79
2022/10/23 04:59:58;;;;;;;41.95;25.70;;;;;;;10.06;98.85;100509.41;4478901;31;33858;-78
2022/10/23 05:02:26;;;;;;;35.33;22.70;;;;;;;10.88;91.92;100511.47;4474222;31;33979;-78
2022/10/23 05:04:54;;;;;;;36.55;22.85;;;;;;;10.69;91.87;100514.72;4471671;31;33841;-79
2022/10/23 05:07:26;;;;;;;30.67;20.55;;;;;;;11.53;84.17;100520.97;4472405;31;32242;-78
2022/10/23 05:09:53;;;;;;;29.33;19.98;;;;;;;11.52;83.27;100514.91;4474588;31;33737;-78
2022/10/23 05:12:24;;;;;;;29.75;19.58;;;;;;;11.39;82.95;100523.72;4480454;31;33321;-78
2022/10/23 05:14:52;;;;;;;30.25;19.65;;;;;;;10.17;89.78;100523.00;4480426;31;33880;-78
2022/10/23 05:17:23;;;;;;;33.53;21.42;;;;;;;9.70;93.20;100518.50;4479154;31;34815;-78
2022/10/23 05:19:53;;;;;;;33.65;22.25;;;;;;;9.78;nan;100525.03;4471064;31;34114;-78
2022/10/23 05:22:24;;;;;;;34.88;22.02;;;;;;;9.30;96.22;100521.28;4472669;31;33465;-78
2022/10/23 05:24:52;;;;;;;35.97;23.42;;;;;;;9.12;97.53;100521.91;4473746;31;33700;-78
2022/10/23 05:27:20;;;;;;;38.58;24.42;;;;;;;8.99;99.13;100529.69;4474216;31;33939;-78
2022/10/23 05:29:49;;;;;;;35.30;23.12;;;;;;;8.57;100.00;100534.81;4475116;31;33622;-78
2022/10/23 05:32:17;;;;;;;38.17;23.33;;;;;;;9.44;97.54;100525.56;4478188;31;33704;-78
2022/10/23 05:34:45;;;;;;;36.20;21.12;;;;;;;9.27;98.57;100531.41;4479955;31;34197;-78
2022/10/23 05:37:14;;;;;;;38.58;23.92;;;;;;;9.16;98.86;100523.91;4474727;31;34612;-78
2022/10/23 05:39:42;;;;;;;34.97;21.85;;;;;;;9.32;97.38;100527.44;4477113;31;34461;-78
2022/10/23 05:42:10;;;;;;;35.38;21.65;;;;;;;9.97;94.38;100529.59;4477967;31;33619;-78
2022/10/23 05:44:37;;;;;;;35.42;20.67;;;;;;;10.92;87.19;100529.84;4482237;31;33970;-78
2022/10/23 05:47:06;;;;;;;32.05;19.60;;;;;;;9.90;91.09;100532.63;4479434;31;33887;-78
2022/10/23 05:49:35;;;;;;;33.78;20.37;;;;;;;9.40;95.40;100533.94;4478621;31;33619;-78
2022/10/23 05:52:06;;;;;;;33.50;20.65;;;;;;;9.39;95.52;100532.19;4471109;31;34273;-78
2022/10/23 05:54:33;;;;;;;33.50;20.95;;;;;;;9.37;95.27;100533.78;4470558;32;33611;-78
2022/10/23 05:57:01;;;;;;;35.55;20.30;;;;;;;9.21;97.00;100538.00;4473833;31;33876;-78
2022/10/23 05:59:29;;;;;;;33.35;20.30;;;;;;;9.13;98.67;100534.03;4474499;31;33681;-78
2022/10/23 06:01:57;;;;;;;35.83;21.73;;;;;;;9.24;99.16;100538.19;4475363;31;33026;-78
2022/10/23 06:04:26;;;;;;;36.40;22.87;;;;;;;9.36;99.71;100537.16;4470108;31;33630;-78
2022/10/23 06:06:53;;;;;;;40.95;23.58;;;;;;;9.47;100.00;100541.28;4475575;31;33822;-78
2022/10/23 06:09:22;;;;;;;38.50;23.05;;;;;;;9.48;100.00;100545.66;4476704;31;33903;-78
2022/10/23 06:11:52;;;;;;;39.38;24.10;;;;;;;9.22;100.00;100550.13;4473710;31;32821;-78
2022/10/23 06:14:21;;;;;;;41.58;23.02;;;;;;;9.33;100.00;100545.63;4476356;31;33737;-78
2022/10/23 06:16:49;;;;;;;40.22;24.20;;;;;;;9.47;100.00;100545.59;4476908;31;33986;-78
2022/10/23 06:19:16;;;;;;;43.78;25.90;;;;;;;9.42;100.00;100548.75;4484217;31;33277;-78
2022/10/23 06:21:44;;;;;;;40.67;23.80;;;;;;;9.47;100.00;100554.22;4483294;31;33374;-78
2022/10/23 06:24:12;;;;;;;45.65;25.37;;;;;;;9.75;100.00;100549.00;4479031;31;34063;-79
2022/10/23 06:26:41;;;;;;;39.45;24.95;;;;;;;10.03;99.43;100548.06;4476213;31;34681;-78
2022/10/23 06:29:08;;;;;;;40.83;24.60;;;;;;;10.14;98.74;100556.44;4482572;31;34120;-78
2022/10/23 06:31:36;;;;;;;38.17;23.48;;;;;;;10.16;98.68;100557.44;4474541;31;33616;-78
2022/10/23 06:34:04;;;;;;;42.47;23.95;;;;;;;10.09;99.85;100565.66;4488111;31;33720;-79
2022/10/23 06:36:32;;;;;;;39.83;24.60;;;;;;;9.93;100.00;100577.69;4488356;31;33951;-78
2022/10/23 06:39:00;;;;;;;42.95;25.58;;;;;;;9.80;100.00;100582.94;4492648;31;33414;-81
2022/10/23 06:41:32;;;;;;;38.90;23.40;;;;;;;10.07;100.00;100590.56;4480989;31;33567;-78
2022/10/23 06:44:00;;;;;;;37.08;22.37;;;;;;;10.36;100.00;100597.50;4473654;31;33927;-80
2022/10/23 06:46:33;;;;;;;36.53;22.58;;;;;;;10.41;100.00;100602.13;4485534;31;34451;-78
2022/10/23 06:49:02;;;;;;;35.45;21.20;;;;;;;10.34;100.00;100594.81;4475028;32;33935;-77
2022/10/23 06:51:30;;;;;;;38.05;22.08;;;;;;;10.48;100.00;100592.13;4483948;31;33659;-78
2022/10/23 06:53:58;;;;;;;33.78;20.02;;;;;;;11.11;98.40;100591.38;4490198;31;33822;-78
2022/10/23 06:56:29;;;;;;;35.20;20.15;;;;;;;11.67;94.50;100589.19;4477744;31;32227;-78
2022/10/23 06:58:58;;;;;;;33.35;19.73;;;;;;;11.54;94.60;100588.50;4492301;31;33123;-77
2022/10/23 07:01:25;;;;;;;32.25;19.67;;;;;;;11.03;98.72;100597.84;4475010;31;33862;-78
2022/10/23 07:03:53;;;;;;;33.90;19.75;;;;;;;11.33;97.60;100592.56;4478650;31;33443;-77
2022/10/23 07:06:22;;;;;;;36.33;21.05;;;;;;;11.18;99.54;100596.09;4480509;31;33344;-77
2022/10/23 07:08:51;;;;;;;29.67;19.45;;;;;;;11.72;96.97;100600.69;4478111;31;33717;-77
2022/10/23 07:11:20;;;;;;;29.15;18.15;;;;;;;12.94;89.49;100594.72;4480467;31;32851;-77
2022/10/23 07:13:48;;;;;;;32.60;18.92;;;;;;;13.44;86.02;100593.63;4484360;31;33861;-77
2022/10/23 07:16:18;;;;;;;28.75;18.00;;;;;;;13.52;85.73;100592.28;4481606;31;33698;-77
2022/10/23 07:18:48;;;;;;;25.65;17.67;;;;;;;13.39;87.06;100595.16;4491933;31;33419;-78
2022/10/23 07:21:18;;;;;;;25.85;18.23;;;;;;;13.51;86.17;100598.28;4483328;31;32656;-77
2022/10/23 07:23:46;;;;;;;29.12;19.62;;;;;;;13.82;86.23;100606.59;4494763;31;34021;-78
2022/10/23 07:26:14;;;;;;;28.67;18.67;;;;;;;14.01;85.84;100593.56;4479771;31;32539;-77
2022/10/23 07:28:43;;;;;;;28.90;18.48;;;;;;;13.89;86.37;100603.47;4481687;32;33951;-77
2022/10/23 07:31:12;;;;;;;29.37;16.85;;;;;;;13.48;90.14;100615.47;4479958;31;35568;-77
2022/10/23 07:33:42;;;;;;;27.98;18.23;;;;;;;13.69;89.82;100594.75;4482932;31;33980;-77
2022/10/23 07:36:12;;;;;;;24.63;15.85;;;;;;;14.18;87.49;100588.19;4486374;31;34675;-77
2022/10/23 07:38:40;;;;;;;20.88;14.02;;;;;;;14.22;86.89;100593.59;4483215;31;33967;-76
2022/10/23 07:41:09;;;;;;;21.35;13.88;;;;;;;14.52;85.24;100578.34;4485546;31;33439;-79
2022/10/23 07:43:38;;;;;;;24.63;14.18;;;;;;;14.34;85.61;100585.41;4477094;31;34612;-78
2022/10/23 07:46:08;;;;;;;20.77;14.60;;;;;;;14.13;87.50;100580.19;4481226;31;34570;-78
2022/10/23 07:48:37;;;;;;;23.67;14.20;;;;;;;14.34;87.42;100588.91;4481286;31;34511;-77
2022/10/23 07:51:12;;;;;;;20.58;13.23;;;;;;;13.41;93.61;100592.63;4486426;31;33504;-78
2022/10/23 07:53:40;;;;;;;18.60;12.25;;;;;;;14.13;88.58;100595.81;4475278;31;33915;-77
2022/10/23 07:56:28;;;;;;;18.70;12.15;;;;;;;12.77;95.40;100597.41;4473882;31;33936;-77
2022/10/23 07:58:57;;;;;;;17.55;11.35;;;;;;;13.08;96.16;100582.38;4483042;31;33746;-78
2022/10/23 08:01:33;;;;;;;16.42;10.60;;;;;;;13.68;93.47;100578.22;4478852;31;34123;-77
2022/10/23 08:04:02;;;;;;;18.40;11.10;;;;;;;14.61;87.53;100577.88;4491202;31;34602;-77
2022/10/23 08:06:30;;;;;;;16.00;9.90;;;;;;;13.72;91.03;100574.06;4494588;31;33915;-77
2022/10/23 08:08:57;;;;;;;15.68;10.40;;;;;;;13.84;92.87;100574.59;4472440;31;33840;-77
2022/10/23 08:11:34;;;;;;;15.18;9.25;;;;;;;14.20;91.78;100568.28;4485273;31;33367;-77
2022/10/23 08:14:04;;;;;;;13.35;9.32;;;;;;;13.90;90.86;100564.44;4491211;31;33985;-77
2022/10/23 08:16:34;;;;;;;15.07;8.68;;;;;;;13.45;94.17;100568.50;4479491;31;33207;-78
2022/10/23 08:19:05;;;;;;;15.68;9.88;;;;;;;14.02;91.59;100574.50;4483606;31;34379;-78
2022/10/23 08:21:33;;;;;;;15.95;9.02;;;;;;;13.52;95.10;100576.66;4485838;31;34504;-77
2022/10/23 08:24:01;;;;;;;14.70;8.57;;;;;;;14.33;90.01;100581.00;4495144;31;33697;-77
2022/10/23 08:26:29;;;;;;;14.02;9.65;;;;;;;14.75;87.28;100570.59;4497297;31;34012;-78
2022/10/23 08:28:57;;;;;;;14.05;9.20;;;;;;;15.41;84.68;100570.53;4469918;32;34450;-77
2022/10/23 08:31:25;;;;;;;16.30;9.27;;;;;;;15.98;80.80;100569.16;4492820;31;34200;-78
2022/10/23 08:33:54;;;;;;;14.85;9.80;;;;;;;16.15;79.37;100574.94;4487097;31;34055;-77
2022/10/23 08:36:27;;;;;;;15.48;9.07;;;;;;;14.95;85.93;100579.25;4489425;31;33791;-77
2022/10/23 08:38:56;;;;;;;13.48;8.32;;;;;;;15.13;85.07;100584.28;4483841;31;34193;-78
2022/10/23 08:41:33;;;;;;;12.30;7.60;;;;;;;16.14;80.18;100587.13;4477960;31;33960;-77
2022/10/23 08:44:06;;;;;;;11.02;7.60;;;;;;;16.34;78.24;100572.16;4489645;31;34477;-78
2022/10/23 08:46:40;;;;;;;12.63;7.90;;;;;;;16.25;78.90;100564.00;4492288;31;33874;-78
2022/10/23 08:49:34;;;;;;;12.15;8.13;;;;;;;16.57;77.74;100565.03;4478403;31;32654;-78
2022/10/23 08:52:11;;;;;;;12.30;7.75;;;;;;;16.84;76.04;100551.12;4469684;31;33327;-77
2022/10/23 08:54:50;;;;;;;11.40;7.40;;;;;;;16.76;75.94;100555.19;4480938;31;34575;-77
2022/10/23 08:57:21;;;;;;;12.07;7.03;;;;;;;16.03;80.00;100562.34;4476732;31;33882;-77
2022/10/23 08:59:58;;;;;;;12.77;8.18;;;;;;;16.64;78.00;100550.47;4476974;31;33777;-77
2022/10/23 09:02:29;;;;;;;14.52;10.00;;;;;;;16.80;77.72;100551.81;4475518;31;33243;-77
2022/10/23 09:04:57;;;;;;;14.15;9.63;;;;;;;16.98;77.76;100549.84;4474896;32;33910;-78
2022/10/23 09:07:46;;;;;;;12.82;8.88;;;;;;;17.12;77.74;100562.47;4470330;32;34374;-77
2022/10/23 09:10:36;;;;;;;13.55;8.25;;;;;;;16.43;78.78;100566.34;4480418;31;34701;-77
2022/10/23 09:13:42;;;;;;;13.05;8.65;;;;;;;17.46;75.38;100554.75;4476103;31;33334;-78
2022/10/23 09:16:30;;;;;;;13.90;10.65;;;;;;;17.18;77.92;100558.28;4478729;31;34532;-78
2022/10/23 09:18:58;;;;;;;16.10;11.45;;;;;;;17.06;79.05;100564.03;4473284;31;33949;-78
2022/10/23 09:21:27;;;;;;;16.30;12.52;;;;;;;17.15;77.38;100557.28;4462254;32;33239;-78
2022/10/23 09:23:55;;;;;;;18.08;12.05;;;;;;;17.16;78.33;100572.19;4479729;31;33476;-78
2022/10/23 09:26:22;;;;;;;15.43;11.48;;;;;;;16.77;78.55;100572.69;4485270;31;33663;-78
2022/10/23 09:28:54;;;;;;;14.15;10.57;;;;;;;17.27;78.11;100578.63;4477677;31;33698;-78
2022/10/23 09:31:21;;;;;;;14.38;11.38;;;;;;;17.35;77.78;100577.13;4489879;31;34158;-77
2022/10/23 09:34:00;;;;;;;16.77;10.70;;;;;;;17.98;76.25;100583.28;4491368;31;33794;-77
2022/10/23 09:36:28;;;;;;;16.85;11.02;;;;;;;18.67;73.60;100580.69;4493844;31;33854;-77
2022/10/23 09:38:57;;;;;;;13.07;9.98;;;;;;;18.45;73.81;100574.03;4491128;31;34744;-78
2022/10/23 09:41:36;;;;;;;11.15;8.25;;;;;;;17.90;73.53;100576.94;4477565;31;34312;-77
2022/10/23 09:44:07;;;;;;;9.90;7.35;;;;;;;17.54;74.97;100573.31;4488299;31;33175;-78
2022/10/23 09:47:07;;;;;;;10.60;6.50;;;;;;;17.73;73.42;100576.44;4482294;31;34628;-77
2022/10/23 09:49:38;;;;;;;8.15;5.32;;;;;;;17.77;72.37;100571.34;4480092;31;33936;-77
2022/10/23 09:52:09;;;;;;;9.45;5.90;;;;;;;18.12;70.78;100574.06;4498971;31;33972;-77
2022/10/23 09:54:43;;;;;;;9.93;5.35;;;;;;;18.21;71.04;100571.66;4479668;32;32412;-77
2022/10/23 09:57:32;;;;;;;8.68;5.07;;;;;;;18.34;68.63;100569.37;4478407;31;34571;-77
2022/10/23 10:00:06;;;;;;;8.20;5.25;;;;;;;18.77;68.44;100567.78;4474961;31;33575;-77
2022/10/23 10:02:37;;;;;;;7.22;4.57;;;;;;;18.68;68.94;100560.59;4495681;31;34590;-77
2022/10/23 10:05:29;;;;;;;6.68;4.90;;;;;;;19.05;65.95;100565.00;4490085;31;33349;-77
2022/10/23 10:08:04;;;;;;;7.12;5.43;;;;;;;19.17;67.09;100566.13;4483655;31;34688;-77
2022/10/23 10:10:35;;;;;;;6.95;4.82;;;;;;;18.69;69.76;100561.47;4484356;31;33149;-78
2022/10/23 10:13:25;;;;;;;6.50;4.43;;;;;;;18.87;67.07;100561.94;4476345;32;33742;-77
2022/10/23 10:15:59;;;;;;;8.93;5.87;;;;;;;18.35;67.80;100556.31;4478438;31;33207;-77
2022/10/23 10:18:40;;;;;;;7.72;5.20;;;;;;;18.88;69.34;100557.59;4477504;32;33929;-77
2022/10/23 10:21:12;;;;;;;8.68;6.12;;;;;;;19.09;67.34;100557.19;4478596;32;33978;-78
2022/10/23 10:23:44;;;;;;;10.15;6.53;;;;;;;19.38;66.31;100563.06;4492336;31;34638;-77
2022/10/23 10:26:23;;;;;;;7.53;5.97;;;;;;;19.17;66.95;100553.00;4482851;31;32141;-77
2022/10/23 10:29:12;;;;;;;8.93;6.57;;;;;;;18.77;68.19;100550.31;4478665;31;34588;-77
2022/10/23 10:31:52;;;;;;;9.10;6.97;;;;;;;19.00;67.76;100550.00;4484605;31;33592;-77
2022/10/23 10:34:28;;;;;;;8.38;6.68;;;;;;;18.98;68.05;100549.06;4471825;32;34137;-77
2022/10/23 10:36:58;;;;;;;9.50;7.32;;;;;;;18.94;68.13;100548.09;4485284;31;33439;-77
2022/10/23 10:39:52;;;;;;;11.38;7.75;;;;;;;19.08;68.46;100548.41;4498784;31;33972;-77
2022/10/23 10:42:48;;;;;;;12.27;7.97;;;;;;;19.20;68.79;100539.91;4479228;31;34002;-77
2022/10/23 10:45:26;;;;;;;10.43;8.13;;;;;;;19.33;69.18;100531.44;4492973;31;34057;-77
2022/10/23 10:48:21;;;;;;;11.75;8.13;;;;;;;20.08;65.58;100524.16;4465581;31;32723;-77
2022/10/23 10:50:59;;;;;;;13.90;9.82;;;;;;;19.12;68.11;100528.37;4498533;31;33858;-77
2022/10/23 10:54:22;;;;;;;16.75;11.63;;;;;;;18.82;67.18;100521.59;4487530;31;34671;-77
2022/10/23 10:56:50;;;;;;;21.25;13.30;;;;;;;18.87;67.63;100519.94;4466082;31;33787;-77
2022/10/23 10:59:29;;;;;;;26.45;16.45;;;;;;;18.87;69.04;100512.06;4479825;31;33459;-77
2022/10/23 11:02:12;;;;;;;27.98;17.33;;;;;;;19.38;67.92;100507.91;4497229;31;34441;-77
2022/10/23 11:04:49;;;;;;;33.58;19.30;;;;;;;18.87;67.16;100501.56;4492074;31;33796;-77
2022/10/23 11:07:20;;;;;;;36.53;20.55;;;;;;;19.63;66.00;100498.75;4486654;31;33660;-77
2022/10/23 11:09:48;;;;;;;43.13;25.50;;;;;;;20.40;64.55;100482.59;4472861;31;33649;-78
2022/10/23 11:12:25;;;;;;;45.83;25.90;;;;;;;20.53;63.83;100481.06;4492539;31;34685;-78
2022/10/23 11:14:53;;;;;;;44.33;25.27;;;;;;;21.08;62.54;100480.09;4483640;31;33717;-78
2022/10/23 11:17:34;;;;;;;43.05;27.42;;;;;;;21.35;61.17;100490.94;4474138;32;33876;-78
2022/10/23 11:20:14;;;;;;;43.55;27.42;;;;;;;21.74;59.66;100489.66;4477356;31;33950;-78
2022/10/23 11:22:49;;;;;;;44.75;26.35;;;;;;;22.22;57.74;100482.19;4475789;31;33677;-77
2022/10/23 11:25:27;;;;;;;44.40;26.25;;;;;;;22.45;56.50;100485.03;4481454;32;33610;-78
2022/10/23 11:28:01;;;;;;;45.22;27.40;;;;;;;21.62;58.55;100479.00;4478813;31;33916;-77
2022/10/23 11:31:10;;;;;;;38.58;26.83;;;;;;;22.01;58.13;100490.78;4478740;31;33506;-78
2022/10/23 11:33:50;;;;;;;31.75;21.77;;;;;;;21.79;58.28;100477.41;4487268;31;34843;-78
2022/10/23 11:36:31;;;;;;;31.52;20.85;;;;;;;22.57;55.92;100481.59;4480769;31;34884;-78